createdAt,value
2023-09-27T00:00:48.124Z,12.54
2023-09-27T00:03:14.656Z,12.63
2023-09-27T00:05:41.293Z,12.69
2023-09-27T00:08:08.076Z,12.68
2023-09-27T00:10:34.682Z,12.47
2023-09-27T00:13:01.219Z,12.48
2023-09-27T00:15:27.743Z,12.32
2023-09-27T00:17:55.372Z,12.16
2023-09-27T00:20:23.015Z,12.16
2023-09-27T00:22:49.787Z,12.16
2023-09-27T00:25:16.461Z,12.27
2023-09-27T00:27:43.668Z,12.45
2023-09-27T00:30:14.470Z,12.43
2023-09-27T00:32:46.199Z,12.43
2023-09-27T00:35:20.224Z,12.48
2023-09-27T00:37:48.135Z,12.35
2023-09-27T00:40:15.791Z,12.30
2023-09-27T00:42:42.335Z,12.53
2023-09-27T00:45:09.430Z,12.43
2023-09-27T00:47:37.683Z,12.31
2023-09-27T00:50:04.866Z,12.34
2023-09-27T00:52:31.839Z,12.37
2023-09-27T00:54:58.815Z,12.23
2023-09-27T00:57:26.104Z,12.23
2023-09-27T00:59:53.748Z,12.42
2023-09-27T01:02:20.266Z,12.19
2023-09-27T01:04:46.736Z,11.97
2023-09-27T01:07:13.515Z,12.08
2023-09-27T01:09:40.441Z,12.06
2023-09-27T01:12:07.053Z,12.05
2023-09-27T01:14:33.705Z,12.05
2023-09-27T01:17:11.135Z,11.93
2023-09-27T01:19:40.104Z,11.89
2023-09-27T01:22:06.691Z,11.97
2023-09-27T01:24:42.165Z,12.01
2023-09-27T01:27:10.780Z,12.06
2023-09-27T01:29:37.460Z,12.09
2023-09-27T01:32:04.106Z,12.16
2023-09-27T01:34:30.779Z,12.25
2023-09-27T01:36:57.265Z,12.19
2023-09-27T01:39:25.454Z,12.31
2023-09-27T01:41:52.045Z,12.27
2023-09-27T01:44:19.662Z,12.27
2023-09-27T01:46:46.279Z,12.25
2023-09-27T01:49:12.808Z,12.20
2023-09-27T01:51:40.410Z,12.10
2023-09-27T01:54:06.902Z,12.10
2023-09-27T01:56:33.398Z,12.15
2023-09-27T01:58:59.882Z,12.25
2023-09-27T02:01:26.737Z,12.21
2023-09-27T02:03:53.455Z,12.14
2023-09-27T02:06:19.934Z,11.90
2023-09-27T02:08:46.389Z,11.91
2023-09-27T02:11:13.942Z,11.98
2023-09-27T02:13:40.416Z,11.85
2023-09-27T02:16:07.122Z,11.79
2023-09-27T02:18:33.629Z,11.71
2023-09-27T02:21:00.165Z,11.70
2023-09-27T02:23:26.683Z,11.69
2023-09-27T02:25:59.412Z,11.79
2023-09-27T02:28:25.952Z,11.89
2023-09-27T02:30:52.943Z,11.93
2023-09-27T02:33:19.571Z,11.92
2023-09-27T02:35:46.434Z,11.97
2023-09-27T02:38:13.049Z,11.92
2023-09-27T02:40:41.370Z,11.77
2023-09-27T02:43:07.879Z,11.85
2023-09-27T02:45:35.386Z,11.94
2023-09-27T02:48:02.663Z,12.07
2023-09-27T02:50:29.230Z,12.00
2023-09-27T02:52:56.881Z,12.03
2023-09-27T02:55:23.400Z,11.74
2023-09-27T02:57:55.982Z,11.97
2023-09-27T03:00:23.063Z,12.09
2023-09-27T03:02:49.898Z,11.93
2023-09-27T03:05:16.718Z,11.88
2023-09-27T03:07:45.909Z,12.04
2023-09-27T03:10:12.858Z,12.10
2023-09-27T03:12:40.709Z,12.00
2023-09-27T03:15:12.542Z,12.06
2023-09-27T03:17:40.973Z,12.11
2023-09-27T03:20:18.065Z,12.16
2023-09-27T03:22:45.278Z,12.16
2023-09-27T03:25:11.731Z,12.13
2023-09-27T03:27:38.463Z,12.19
2023-09-27T03:30:05.951Z,12.01
2023-09-27T03:32:33.321Z,12.08
2023-09-27T03:35:03.199Z,12.15
2023-09-27T03:37:29.725Z,12.01
2023-09-27T03:40:03.484Z,12.11
2023-09-27T03:42:30.953Z,12.07
2023-09-27T03:44:58.158Z,12.19
2023-09-27T03:47:24.686Z,11.71
2023-09-27T03:49:51.255Z,11.44
2023-09-27T03:52:17.910Z,11.45
2023-09-27T03:54:44.336Z,11.23
2023-09-27T03:57:10.938Z,11.38
2023-09-27T03:59:37.419Z,11.37
2023-09-27T04:02:04.306Z,11.12
2023-09-27T04:04:33.618Z,11.10
2023-09-27T04:07:00.071Z,11.05
2023-09-27T04:09:26.484Z,10.96
2023-09-27T04:11:52.951Z,11.07
2023-09-27T04:14:19.455Z,11.14
2023-09-27T04:16:46.019Z,11.11
2023-09-27T04:19:12.668Z,11.12
2023-09-27T04:21:39.144Z,11.10
2023-09-27T04:24:08.690Z,11.19
2023-09-27T04:26:35.486Z,11.34
2023-09-27T04:29:02.047Z,11.30
2023-09-27T04:31:29.052Z,11.54
2023-09-27T04:33:55.575Z,11.63
2023-09-27T04:36:22.104Z,11.68
2023-09-27T04:38:48.607Z,11.66
2023-09-27T04:41:16.994Z,11.73
2023-09-27T04:43:43.895Z,11.77
2023-09-27T04:46:17.919Z,11.77
2023-09-27T04:48:45.258Z,11.84
2023-09-27T04:51:11.785Z,11.85
2023-09-27T04:53:39.386Z,11.80
2023-09-27T04:56:07.657Z,11.79
2023-09-27T04:58:36.265Z,11.85
2023-09-27T05:01:04.971Z,11.84
2023-09-27T05:03:34.620Z,11.78
2023-09-27T05:06:01.239Z,11.82
2023-09-27T05:08:28.060Z,11.77
2023-09-27T05:10:57.755Z,10.57
2023-09-27T05:13:24.702Z,11.12
2023-09-27T05:15:57.337Z,11.08
2023-09-27T05:18:24.054Z,11.06
2023-09-27T05:20:50.873Z,10.93
2023-09-27T05:23:17.357Z,11.01
2023-09-27T05:25:45.965Z,11.12
2023-09-27T05:28:12.833Z,11.13
2023-09-27T05:30:39.569Z,11.06
2023-09-27T05:33:06.128Z,10.97
2023-09-27T05:35:32.782Z,11.06
2023-09-27T05:38:00.394Z,10.88
2023-09-27T05:40:27.613Z,10.87
2023-09-27T05:42:54.838Z,11.00
2023-09-27T05:45:25.726Z,11.08
2023-09-27T05:47:53.657Z,11.17
2023-09-27T05:50:20.310Z,10.89
2023-09-27T05:52:47.693Z,10.90
2023-09-27T05:55:16.769Z,11.05
2023-09-27T05:57:43.579Z,10.98
2023-09-27T06:00:27.806Z,11.13
2023-09-27T06:02:54.693Z,11.30
2023-09-27T06:05:21.702Z,11.58
2023-09-27T06:07:48.542Z,11.74
2023-09-27T06:10:15.049Z,11.85
2023-09-27T06:12:41.589Z,11.93
2023-09-27T06:15:08.556Z,11.96
2023-09-27T06:17:35.115Z,12.13
2023-09-27T06:20:06.591Z,12.14
2023-09-27T06:22:40.531Z,12.18
2023-09-27T06:25:07.584Z,11.86
2023-09-27T06:27:35.566Z,11.85
2023-09-27T06:30:03.012Z,12.19
2023-09-27T06:32:29.546Z,12.19
2023-09-27T06:34:56.078Z,12.20
2023-09-27T06:37:22.519Z,12.30
2023-09-27T06:39:49.018Z,11.75
2023-09-27T06:42:16.997Z,11.89
2023-09-27T06:44:43.964Z,12.28
2023-09-27T06:47:10.689Z,12.56
2023-09-27T06:49:41.859Z,12.55
2023-09-27T06:52:08.495Z,12.70
2023-09-27T06:54:35.062Z,12.73
2023-09-27T06:57:01.550Z,12.87
2023-09-27T06:59:28.082Z,12.81
2023-09-27T07:01:54.609Z,12.90
2023-09-27T07:04:21.123Z,12.85
2023-09-27T07:06:47.583Z,13.00
2023-09-27T07:09:17.183Z,13.11
2023-09-27T07:11:45.723Z,13.17
2023-09-27T07:14:13.553Z,13.36
2023-09-27T07:16:50.843Z,13.41
2023-09-27T07:19:25.533Z,13.32
2023-09-27T07:21:52.646Z,13.67
2023-09-27T07:24:19.928Z,13.98
2023-09-27T07:26:48.645Z,14.10
2023-09-27T07:29:15.862Z,13.86
2023-09-27T07:31:47.329Z,14.55
2023-09-27T07:34:13.849Z,14.48
2023-09-27T07:36:40.821Z,14.73
2023-09-27T07:39:10.645Z,14.60
2023-09-27T07:41:37.495Z,14.72
2023-09-27T07:44:08.363Z,15.30
2023-09-27T07:46:34.931Z,14.63
2023-09-27T07:49:01.862Z,15.18
2023-09-27T07:51:28.656Z,15.73
2023-09-27T07:53:55.448Z,16.08
2023-09-27T07:56:27.429Z,15.27
2023-09-27T07:58:55.884Z,15.90
2023-09-27T08:01:23.781Z,16.29
2023-09-27T08:03:53.226Z,16.87
2023-09-27T08:06:20.943Z,16.09
2023-09-27T08:08:48.514Z,17.57
2023-09-27T08:11:16.828Z,16.88
2023-09-27T08:13:43.479Z,17.20
2023-09-27T08:16:10.168Z,17.50
2023-09-27T08:18:38.545Z,17.01
2023-09-27T08:21:05.665Z,18.18
2023-09-27T08:23:32.895Z,16.88
2023-09-27T08:26:02.107Z,17.76
2023-09-27T08:28:33.040Z,18.98
2023-09-27T08:31:00.492Z,19.28
2023-09-27T08:33:29.070Z,19.87
2023-09-27T08:36:00.151Z,19.92
2023-09-27T08:38:27.395Z,19.46
2023-09-27T08:40:56.802Z,19.38
2023-09-27T08:43:24.212Z,19.05
2023-09-27T08:45:56.010Z,18.96
2023-09-27T08:48:25.384Z,19.06
2023-09-27T08:50:52.535Z,21.06
2023-09-27T08:53:19.580Z,20.90
2023-09-27T08:55:53.635Z,20.83
2023-09-27T08:58:23.332Z,20.87
2023-09-27T09:00:50.541Z,20.68
2023-09-27T09:03:18.072Z,20.55
2023-09-27T09:05:46.658Z,20.54
2023-09-27T09:08:13.773Z,21.23
2023-09-27T09:10:40.775Z,21.02
2023-09-27T09:13:07.602Z,21.37
2023-09-27T09:15:41.891Z,21.02
2023-09-27T09:18:16.162Z,22.00
2023-09-27T09:20:50.689Z,22.10
2023-09-27T09:23:35.723Z,23.58
2023-09-27T09:26:07.523Z,23.59
2023-09-27T09:28:36.851Z,22.62
2023-09-27T09:31:03.466Z,22.86
2023-09-27T09:33:30.140Z,24.36
2023-09-27T09:35:57.792Z,22.96
2023-09-27T09:38:26.956Z,24.60
2023-09-27T09:40:55.604Z,25.52
2023-09-27T09:43:40.378Z,27.45
2023-09-27T09:46:10.158Z,25.89
2023-09-27T09:48:39.572Z,27.93
2023-09-27T09:51:09.021Z,28.79
2023-09-27T09:53:40.582Z,29.05
2023-09-27T09:58:55.191Z,28.33
2023-09-27T10:01:29.985Z,28.03
2023-09-27T10:03:59.891Z,29.13
2023-09-27T10:06:45.141Z,30.69
2023-09-27T10:09:16.135Z,29.73
2023-09-27T10:11:46.604Z,28.96
2023-09-27T10:14:16.924Z,29.52
2023-09-27T10:16:44.740Z,30.33
2023-09-27T10:19:11.925Z,30.08
2023-09-27T10:22:03.593Z,30.53
2023-09-27T10:24:30.370Z,29.82
2023-09-27T10:27:00.481Z,29.92
2023-09-27T10:29:27.344Z,28.97
2023-09-27T10:31:57.524Z,30.14
2023-09-27T10:34:27.364Z,29.78
2023-09-27T10:37:04.607Z,30.13
2023-09-27T10:39:41.590Z,29.57
2023-09-27T10:42:08.572Z,29.99
2023-09-27T10:44:37.766Z,30.43
2023-09-27T10:47:05.573Z,31.60
2023-09-27T10:49:41.319Z,30.34
2023-09-27T10:52:20.264Z,30.80
2023-09-27T10:54:47.143Z,30.79
2023-09-27T10:57:15.433Z,30.48
2023-09-27T10:59:44.796Z,29.83
2023-09-27T11:02:11.526Z,30.56
2023-09-27T11:04:39.328Z,30.11
2023-09-27T11:07:05.889Z,30.64
2023-09-27T11:09:33.891Z,30.73
2023-09-27T11:12:00.993Z,30.54
2023-09-27T11:14:45.175Z,30.69
2023-09-27T11:17:26.671Z,30.68
2023-09-27T11:19:53.892Z,31.47
2023-09-27T11:22:30.154Z,31.37
2023-09-27T11:24:57.263Z,31.73
2023-09-27T11:27:23.955Z,31.49
2023-09-27T11:29:56.631Z,31.95
2023-09-27T11:32:24.533Z,31.93
2023-09-27T11:34:58.276Z,31.93
2023-09-27T11:37:26.742Z,32.00
2023-09-27T11:39:55.782Z,31.96
2023-09-27T11:42:23.696Z,31.71
2023-09-27T11:45:09.450Z,32.75
2023-09-27T11:48:06.621Z,32.21
2023-09-27T11:50:33.259Z,32.70
2023-09-27T11:53:00.700Z,31.47
2023-09-27T11:55:28.063Z,32.13
2023-09-27T11:57:58.660Z,32.64
2023-09-27T12:00:25.143Z,33.39
2023-09-27T12:02:57.921Z,34.11
2023-09-27T12:05:26.339Z,34.65
2023-09-27T12:07:54.048Z,34.01
2023-09-27T12:10:20.740Z,33.94
2023-09-27T12:12:47.362Z,33.99
2023-09-27T12:15:13.939Z,34.02
2023-09-27T12:17:40.601Z,32.71
2023-09-27T12:20:13.317Z,33.21
2023-09-27T12:22:45.630Z,32.41
2023-09-27T12:25:12.263Z,31.73
2023-09-27T12:27:38.795Z,30.67
2023-09-27T12:30:06.450Z,30.17
2023-09-27T12:32:33.533Z,29.98
2023-09-27T12:35:00.279Z,29.99
2023-09-27T12:37:27.146Z,31.45
2023-09-27T12:39:53.621Z,31.44
2023-09-27T12:42:20.147Z,31.80
2023-09-27T12:44:50.179Z,32.24
2023-09-27T12:47:20.263Z,33.38
2023-09-27T12:49:46.832Z,32.46
2023-09-27T12:52:14.570Z,33.81
2023-09-27T12:54:41.097Z,33.53
2023-09-27T12:57:08.495Z,33.16
2023-09-27T12:59:35.170Z,31.95
2023-09-27T13:02:01.879Z,30.53
2023-09-27T13:04:28.706Z,31.99
2023-09-27T13:06:56.236Z,31.86
2023-09-27T13:11:51.276Z,32.01
2023-09-27T13:14:18.102Z,32.78
2023-09-27T13:16:44.695Z,33.30
2023-09-27T13:19:11.209Z,30.93
2023-09-27T13:21:37.704Z,30.69
2023-09-27T13:24:04.842Z,29.18
2023-09-27T13:26:31.333Z,29.85
2023-09-27T13:28:57.911Z,29.94
2023-09-27T13:31:25.115Z,28.13
2023-09-27T13:34:07.317Z,28.38
2023-09-27T13:36:38.098Z,29.50
2023-09-27T13:39:07.048Z,29.07
2023-09-27T13:41:45.233Z,28.24
2023-09-27T13:44:13.691Z,27.85
2023-09-27T13:46:40.334Z,27.47
2023-09-27T13:49:07.627Z,26.73
2023-09-27T13:51:37.239Z,26.98
2023-09-27T13:54:08.162Z,26.73
2023-09-27T13:56:35.471Z,26.85
2023-09-27T13:59:02.066Z,26.74
2023-09-27T14:01:29.621Z,27.40
2023-09-27T14:03:56.892Z,27.22
2023-09-27T14:06:23.536Z,27.46
2023-09-27T14:08:52.689Z,27.32
2023-09-27T14:11:19.541Z,27.58
2023-09-27T14:13:46.600Z,26.47
2023-09-27T14:16:13.507Z,26.63
2023-09-27T14:18:40.393Z,26.02
2023-09-27T14:21:07.807Z,26.05
2023-09-27T14:23:36.604Z,26.27
2023-09-27T14:26:03.853Z,26.06
2023-09-27T14:28:30.908Z,26.43
2023-09-27T14:30:57.535Z,26.26
2023-09-27T14:33:29.488Z,26.39
2023-09-27T14:36:01.255Z,25.86
2023-09-27T14:38:29.534Z,25.53
2023-09-27T14:40:56.369Z,25.94
2023-09-27T14:43:23.293Z,26.02
2023-09-27T14:45:51.120Z,25.82
2023-09-27T14:48:17.726Z,26.04
2023-09-27T14:50:44.207Z,25.89
2023-09-27T14:53:10.773Z,25.95
2023-09-27T14:55:37.301Z,26.09
2023-09-27T14:58:04.000Z,25.85
2023-09-27T15:00:32.564Z,25.78
2023-09-27T15:02:59.129Z,25.78
2023-09-27T15:05:25.759Z,25.68
2023-09-27T15:07:52.420Z,25.73
2023-09-27T15:10:18.973Z,25.67
2023-09-27T15:12:45.466Z,25.62
2023-09-27T15:15:13.727Z,25.67
2023-09-27T15:17:44.369Z,25.66
2023-09-27T15:20:14.532Z,25.57
2023-09-27T15:22:41.967Z,25.68
2023-09-27T15:25:10.218Z,25.46
2023-09-27T15:27:36.862Z,25.52
2023-09-27T15:30:03.618Z,25.39
2023-09-27T15:32:30.225Z,25.41
2023-09-27T15:34:56.861Z,25.12
2023-09-27T15:37:23.509Z,25.29
2023-09-27T15:39:50.054Z,25.32
2023-09-27T15:42:16.638Z,25.28
2023-09-27T15:44:43.147Z,25.20
2023-09-27T15:47:15.559Z,25.15
2023-09-27T15:49:42.360Z,25.15
2023-09-27T15:52:09.917Z,25.21
2023-09-27T15:54:36.588Z,25.31
2023-09-27T15:57:03.142Z,24.96
2023-09-27T15:59:29.984Z,24.93
2023-09-27T16:01:57.683Z,24.71
2023-09-27T16:04:26.078Z,24.71
2023-09-27T16:06:56.036Z,24.46
2023-09-27T16:09:23.718Z,24.31
2023-09-27T16:11:50.259Z,24.29
2023-09-27T16:14:16.737Z,24.11
2023-09-27T16:16:43.268Z,24.07
2023-09-27T16:19:09.791Z,23.60
2023-09-27T16:21:36.502Z,23.36
2023-09-27T16:24:04.302Z,23.33
2023-09-27T16:26:31.225Z,23.20
2023-09-27T16:28:57.798Z,22.82
2023-09-27T16:31:26.732Z,22.67
2023-09-27T16:33:54.173Z,22.43
2023-09-27T16:36:22.561Z,21.86
2023-09-27T16:38:49.564Z,21.84
2023-09-27T16:41:20.478Z,21.88
2023-09-27T16:43:47.327Z,21.83
2023-09-27T16:46:14.125Z,21.51
2023-09-27T16:48:40.699Z,21.45
2023-09-27T16:51:07.356Z,21.41
2023-09-27T16:53:36.676Z,21.29
2023-09-27T16:56:03.270Z,21.05
2023-09-27T16:58:29.886Z,20.79
2023-09-27T17:00:56.866Z,20.74
2023-09-27T17:03:23.524Z,20.67
2023-09-27T17:05:50.219Z,20.49
2023-09-27T17:08:19.758Z,20.40
2023-09-27T17:10:47.174Z,20.37
2023-09-27T17:13:13.730Z,20.17
2023-09-27T17:15:45.289Z,19.95
2023-09-27T17:18:12.121Z,19.97
2023-09-27T17:20:38.661Z,19.85
2023-09-27T17:23:05.173Z,19.58
2023-09-27T17:25:31.897Z,19.84
2023-09-27T17:27:58.465Z,19.84
2023-09-27T17:30:25.927Z,19.82
2023-09-27T17:32:52.672Z,19.77
2023-09-27T17:35:19.291Z,19.85
2023-09-27T17:37:46.350Z,19.72
2023-09-27T17:40:13.239Z,19.63
2023-09-27T17:42:39.802Z,19.42
2023-09-27T17:45:07.799Z,19.17
2023-09-27T17:47:34.916Z,19.06
2023-09-27T17:50:01.769Z,18.92
2023-09-27T17:52:28.349Z,18.92
2023-09-27T17:54:54.861Z,18.73
2023-09-27T17:57:21.582Z,18.69
2023-09-27T17:59:48.106Z,18.54
2023-09-27T18:02:14.972Z,18.50
2023-09-27T18:04:41.686Z,18.46
2023-09-27T18:07:08.179Z,18.45
2023-09-27T18:09:37.353Z,18.17
2023-09-27T18:12:04.270Z,18.30
2023-09-27T18:14:30.802Z,18.23
2023-09-27T18:16:57.981Z,18.19
2023-09-27T18:19:24.597Z,18.18
2023-09-27T18:21:51.133Z,17.95
2023-09-27T18:24:17.625Z,17.94
2023-09-27T18:26:44.541Z,17.92
2023-09-27T18:29:11.053Z,17.91
2023-09-27T18:31:39.741Z,17.93
2023-09-27T18:34:06.442Z,17.82
2023-09-27T18:36:34.294Z,17.89
2023-09-27T18:39:01.426Z,17.69
2023-09-27T18:41:28.546Z,17.62
2023-09-27T18:43:55.444Z,17.58
2023-09-27T18:46:22.401Z,17.63
2023-09-27T18:48:51.717Z,17.66
2023-09-27T18:51:23.155Z,17.66
2023-09-27T18:53:50.734Z,17.66
2023-09-27T18:56:18.347Z,17.44
2023-09-27T18:58:45.183Z,17.17
2023-09-27T19:01:11.767Z,17.25
2023-09-27T19:03:38.275Z,17.19
2023-09-27T19:06:04.837Z,17.05
2023-09-27T19:08:31.560Z,17.02
2023-09-27T19:10:58.258Z,17.17
2023-09-27T19:13:24.790Z,17.19
2023-09-27T19:15:51.353Z,17.19
2023-09-27T19:18:17.832Z,17.20
2023-09-27T19:20:46.960Z,17.09
2023-09-27T19:23:13.519Z,17.03
2023-09-27T19:25:41.962Z,17.10
2023-09-27T19:28:08.483Z,17.04
2023-09-27T19:30:35.038Z,16.86
2023-09-27T19:33:02.381Z,16.74
2023-09-27T19:35:29.736Z,16.67
2023-09-27T19:37:56.206Z,16.68
2023-09-27T19:40:23.877Z,16.62
2023-09-27T19:42:51.126Z,16.56
2023-09-27T19:45:17.620Z,16.36
2023-09-27T19:47:44.122Z,16.47
2023-09-27T19:50:12.764Z,16.43
2023-09-27T19:52:39.576Z,16.49
2023-09-27T19:55:10.141Z,16.43
2023-09-27T19:57:36.860Z,16.43
2023-09-27T20:00:04.907Z,16.36
2023-09-27T20:02:32.588Z,16.29
2023-09-27T20:04:59.117Z,16.31
2023-09-27T20:07:25.691Z,16.24
2023-09-27T20:09:52.682Z,16.20
2023-09-27T20:12:19.178Z,16.20
2023-09-27T20:14:45.757Z,16.24
2023-09-27T20:17:12.365Z,16.18
2023-09-27T20:19:38.956Z,16.13
2023-09-27T20:22:08.301Z,16.11
2023-09-27T20:24:38.691Z,16.19
2023-09-27T20:27:05.283Z,16.17
2023-09-27T20:29:31.886Z,16.10
2023-09-27T20:31:58.461Z,16.05
2023-09-27T20:34:25.682Z,16.05
2023-09-27T20:36:52.307Z,15.98
2023-09-27T20:39:20.666Z,15.93
2023-09-27T20:41:47.360Z,15.87
2023-09-27T20:44:14.266Z,15.83
2023-09-27T20:46:40.890Z,15.83
2023-09-27T20:49:07.424Z,15.95
2023-09-27T20:51:34.127Z,15.95
2023-09-27T20:54:01.587Z,15.90
2023-09-27T20:56:28.094Z,15.84
2023-09-27T20:58:55.047Z,15.75
2023-09-27T21:01:37.424Z,15.70
2023-09-27T21:04:04.732Z,15.69
2023-09-27T21:06:31.499Z,15.64
2023-09-27T21:09:01.471Z,15.63
2023-09-27T21:11:29.357Z,15.52
2023-09-27T21:13:59.045Z,15.40
2023-09-27T21:16:27.004Z,15.47
2023-09-27T21:18:54.827Z,15.39
2023-09-27T21:21:23.215Z,15.38
2023-09-27T21:23:50.052Z,15.31
2023-09-27T21:26:17.071Z,15.29
2023-09-27T21:28:44.170Z,15.38
2023-09-27T21:31:14.808Z,15.44
2023-09-27T21:33:44.851Z,15.40
2023-09-27T21:36:11.482Z,15.29
2023-09-27T21:38:38.073Z,15.24
2023-09-27T21:41:04.929Z,15.03
2023-09-27T21:43:33.719Z,15.04
2023-09-27T21:46:01.349Z,15.01
2023-09-27T21:48:28.015Z,15.00
2023-09-27T21:50:54.772Z,14.93
2023-09-27T21:53:21.226Z,14.96
2023-09-27T21:55:47.754Z,14.89
2023-09-27T21:58:14.566Z,14.93
2023-09-27T22:00:41.370Z,14.98
2023-09-27T22:03:09.577Z,14.98
2023-09-27T22:05:36.893Z,14.92
2023-09-27T22:08:03.648Z,14.95
2023-09-27T22:10:39.308Z,14.89
2023-09-27T22:13:22.801Z,14.84
2023-09-27T22:15:50.285Z,15.04
2023-09-27T22:18:17.280Z,15.10
2023-09-27T22:20:46.884Z,15.03
2023-09-27T22:23:25.381Z,14.88
2023-09-27T22:25:54.850Z,14.82
2023-09-27T22:28:26.077Z,14.82
2023-09-27T22:30:52.572Z,14.75
2023-09-27T22:33:19.759Z,14.71
2023-09-27T22:35:52.438Z,14.58
2023-09-27T22:38:20.769Z,14.64
2023-09-27T22:40:48.785Z,14.62
2023-09-27T22:43:17.189Z,14.65
2023-09-27T22:45:49.016Z,14.44
2023-09-27T22:48:17.489Z,14.27
2023-09-27T22:50:49.536Z,14.24
2023-09-27T22:53:18.308Z,14.36
2023-09-27T22:55:51.339Z,14.38
2023-09-27T22:58:19.433Z,14.42
2023-09-27T23:00:58.179Z,14.41
2023-09-27T23:03:27.824Z,14.41
2023-09-27T23:05:57.373Z,14.37
2023-09-27T23:08:30.807Z,14.29
2023-09-27T23:10:58.890Z,14.27
2023-09-27T23:13:30.901Z,14.25
2023-09-27T23:15:58.476Z,14.37
2023-09-27T23:18:30.247Z,14.38
2023-09-27T23:21:16.738Z,14.31
2023-09-27T23:23:57.501Z,14.33
2023-09-27T23:26:52.678Z,14.17
2023-09-27T23:29:29.786Z,13.90
2023-09-27T23:32:03.603Z,13.82
2023-09-27T23:34:35.148Z,13.71
2023-09-27T23:37:18.085Z,13.96
2023-09-27T23:39:48.382Z,14.01
2023-09-27T23:42:29.060Z,13.95
2023-09-27T23:45:10.039Z,13.83
2023-09-27T23:47:44.918Z,14.04
2023-09-27T23:50:16.066Z,14.01
2023-09-27T23:52:45.974Z,14.09
2023-09-27T23:55:14.342Z,14.07
2023-09-27T23:57:41.690Z,14.04
